sensor_id;sensor_type;location;lat;lon;timestamp;pressure;altitude;pressure_sealevel;temperature;humidity
61039;BME280;46919;45.816;3.104;2023-05-09T00:02:15;98155.53;;;12.80;100.00
61039;BME280;46919;45.816;3.104;2023-05-09T00:04:41;98156.00;;;12.77;100.00
61039;BME280;46919;45.816;3.104;2023-05-09T00:07:06;98145.03;;;12.72;100.00
61039;BME280;46919;45.816;3.104;2023-05-09T00:09:32;98150.91;;;12.69;100.00
61039;BME280;46919;45.816;3.104;2023-05-09T00:11:57;98148.28;;;12.62;100.00
61039;BME280;46919;45.816;3.104;2023-05-09T00:14:22;98153.81;;;12.56;100.00
61039;BME280;46919;45.816;3.104;2023-05-09T00:16:48;98146.75;;;12.55;100.00
61039;BME280;46919;45.816;3.104;2023-05-09T00:19:14;98136.97;;;12.54;100.00
61039;BME280;46919;45.816;3.104;2023-05-09T00:21:40;98142.03;;;12.62;100.00
61039;BME280;46919;45.816;3.104;2023-05-09T00:24:05;98141.91;;;12.57;100.00
61039;BME280;46919;45.816;3.104;2023-05-09T00:26:31;98136.38;;;12.52;100.00
61039;BME280;46919;45.816;3.104;2023-05-09T00:28:56;98132.44;;;12.47;100.00
61039;BME280;46919;45.816;3.104;2023-05-09T00:31:22;98137.88;;;12.47;100.00
61039;BME280;46919;45.816;3.104;2023-05-09T00:33:47;98131.03;;;12.45;100.00
61039;BME280;46919;45.816;3.104;2023-05-09T00:36:12;98131.25;;;12.43;100.00
61039;BME280;46919;45.816;3.104;2023-05-09T00:38:38;98128.53;;;12.43;100.00
61039;BME280;46919;45.816;3.104;2023-05-09T00:41:04;98127.38;;;12.39;100.00
61039;BME280;46919;45.816;3.104;2023-05-09T00:43:29;98129.03;;;12.40;100.00
61039;BME280;46919;45.816;3.104;2023-05-09T00:45:55;98133.25;;;12.36;100.00
61039;BME280;46919;45.816;3.104;2023-05-09T00:48:20;98129.50;;;12.37;100.00
61039;BME280;46919;45.816;3.104;2023-05-09T00:50:46;98127.81;;;12.36;100.00
61039;BME280;46919;45.816;3.104;2023-05-09T00:53:20;98119.09;;;12.34;100.00
61039;BME280;46919;45.816;3.104;2023-05-09T00:55:45;98120.28;;;12.38;100.00
61039;BME280;46919;45.816;3.104;2023-05-09T00:58:11;98117.00;;;12.48;100.00
61039;BME280;46919;45.816;3.104;2023-05-09T01:00:37;98116.78;;;12.49;100.00
61039;BME280;46919;45.816;3.104;2023-05-09T01:03:02;98103.59;;;12.53;100.00
61039;BME280;46919;45.816;3.104;2023-05-09T01:05:39;98110.94;;;12.64;100.00
61039;BME280;46919;45.816;3.104;2023-05-09T01:08:42;98115.84;;;12.56;100.00
61039;BME280;46919;45.816;3.104;2023-05-09T01:11:19;98120.91;;;12.52;100.00
61039;BME280;46919;45.816;3.104;2023-05-09T01:16:38;98108.78;;;12.55;100.00
61039;BME280;46919;45.816;3.104;2023-05-09T01:21:47;98095.84;;;12.68;100.00
61039;BME280;46919;45.816;3.104;2023-05-09T01:29:41;98095.38;;;12.60;100.00
61039;BME280;46919;45.816;3.104;2023-05-09T01:32:13;98091.00;;;12.59;100.00
61039;BME280;46919;45.816;3.104;2023-05-09T01:34:42;98098.31;;;12.58;100.00
61039;BME280;46919;45.816;3.104;2023-05-09T01:37:08;98102.91;;;12.58;100.00
61039;BME280;46919;45.816;3.104;2023-05-09T01:39:37;98096.53;;;12.64;100.00
61039;BME280;46919;45.816;3.104;2023-05-09T01:42:07;98091.38;;;12.74;100.00
61039;BME280;46919;45.816;3.104;2023-05-09T01:44:38;98093.75;;;12.82;100.00
61039;BME280;46919;45.816;3.104;2023-05-09T01:47:06;98085.59;;;12.82;100.00
61039;BME280;46919;45.816;3.104;2023-05-09T01:49:35;98082.66;;;12.84;100.00
61039;BME280;46919;45.816;3.104;2023-05-09T01:52:05;98080.28;;;12.87;100.00
61039;BME280;46919;45.816;3.104;2023-05-09T01:54:33;98074.78;;;12.94;100.00
61039;BME280;46919;45.816;3.104;2023-05-09T01:57:00;98085.38;;;12.96;100.00
61039;BME280;46919;45.816;3.104;2023-05-09T01:59:30;98079.59;;;12.92;100.00
61039;BME280;46919;45.816;3.104;2023-05-09T02:01:56;98072.03;;;12.82;100.00
61039;BME280;46919;45.816;3.104;2023-05-09T02:04:22;98075.22;;;12.79;100.00
61039;BME280;46919;45.816;3.104;2023-05-09T02:06:50;98076.78;;;12.75;100.00
61039;BME280;46919;45.816;3.104;2023-05-09T02:09:17;98072.97;;;12.76;100.00
61039;BME280;46919;45.816;3.104;2023-05-09T02:11:43;98074.63;;;12.77;100.00
61039;BME280;46919;45.816;3.104;2023-05-09T02:14:08;98066.50;;;12.77;100.00
61039;BME280;46919;45.816;3.104;2023-05-09T02:16:34;98076.78;;;12.75;100.00
61039;BME280;46919;45.816;3.104;2023-05-09T02:18:59;98076.78;;;12.75;100.00
61039;BME280;46919;45.816;3.104;2023-05-09T02:21:25;98085.38;;;12.72;100.00
61039;BME280;46919;45.816;3.104;2023-05-09T02:23:50;98086.41;;;12.71;100.00
61039;BME280;46919;45.816;3.104;2023-05-09T02:26:16;98073.44;;;12.73;100.00
61039;BME280;46919;45.816;3.104;2023-05-09T02:28:43;98074.63;;;12.77;100.00
61039;BME280;46919;45.816;3.104;2023-05-09T02:31:11;98073.59;;;12.78;100.00
61039;BME280;46919;45.816;3.104;2023-05-09T02:33:38;98065.44;;;12.78;100.00
61039;BME280;46919;45.816;3.104;2023-05-09T02:36:06;98065.91;;;12.75;100.00
61039;BME280;46919;45.816;3.104;2023-05-09T02:38:33;98062.59;;;12.73;100.00
61039;BME280;46919;45.816;3.104;2023-05-09T02:40:59;98062.81;;;12.72;100.00
61039;BME280;46919;45.816;3.104;2023-05-09T02:43:24;98060.00;;;12.66;100.00
61039;BME280;46919;45.816;3.104;2023-05-09T02:45:50;98070.25;;;12.64;100.00
61039;BME280;46919;45.816;3.104;2023-05-09T02:48:15;98068.25;;;12.60;100.00
61039;BME280;46919;45.816;3.104;2023-05-09T02:50:41;98070.50;;;12.63;100.00
61039;BME280;46919;45.816;3.104;2023-05-09T02:53:07;98063.06;;;12.70;100.00
61039;BME280;46919;45.816;3.104;2023-05-09T02:55:33;98060.03;;;12.78;100.00
61039;BME280;46919;45.816;3.104;2023-05-09T02:57:59;98061.06;;;12.77;100.00
61039;BME280;46919;45.816;3.104;2023-05-09T03:00:25;98063.28;;;12.68;100.00
61039;BME280;46919;45.816;3.104;2023-05-09T03:02:50;98060.69;;;12.62;100.00
61039;BME280;46919;45.816;3.104;2023-05-09T03:05:16;98053.25;;;12.57;100.00
61039;BME280;46919;45.816;3.104;2023-05-09T03:07:43;98058.09;;;12.55;100.00
61039;BME280;46919;45.816;3.104;2023-05-09T03:10:09;98051.63;;;12.56;100.00
61039;BME280;46919;45.816;3.104;2023-05-09T03:12:36;98050.31;;;12.59;100.00
61039;BME280;46919;45.816;3.104;2023-05-09T03:15:05;98047.59;;;12.59;100.00
61039;BME280;46919;45.816;3.104;2023-05-09T03:17:31;98049.16;;;12.55;100.00
61039;BME280;46919;45.816;3.104;2023-05-09T03:19:57;98043.59;;;12.49;100.00
61039;BME280;46919;45.816;3.104;2023-05-09T03:22:22;98039.81;;;12.50;100.00
61039;BME280;46919;45.816;3.104;2023-05-09T03:24:48;98037.13;;;12.50;100.00
61039;BME280;46919;45.816;3.104;2023-05-09T03:27:13;98037.69;;;12.53;100.00
61039;BME280;46919;45.816;3.104;2023-05-09T03:29:39;98039.94;;;12.56;100.00
61039;BME280;46919;45.816;3.104;2023-05-09T03:32:04;98027.47;;;12.55;100.00
61039;BME280;46919;45.816;3.104;2023-05-09T03:34:29;98021.66;;;12.51;100.00
61039;BME280;46919;45.816;3.104;2023-05-09T03:36:55;98018.47;;;12.54;100.00
61039;BME280;46919;45.816;3.104;2023-05-09T03:39:21;98021.56;;;12.58;100.00
61039;BME280;46919;45.816;3.104;2023-05-09T03:41:46;98023.22;;;12.59;100.00
61039;BME280;46919;45.816;3.104;2023-05-09T03:44:12;98019.09;;;12.56;100.00
61039;BME280;46919;45.816;3.104;2023-05-09T03:46:38;98018.72;;;12.53;100.00
61039;BME280;46919;45.816;3.104;2023-05-09T03:49:03;98013.53;;;12.51;100.00
61039;BME280;46919;45.816;3.104;2023-05-09T03:51:29;98014.84;;;12.48;100.00
61039;BME280;46919;45.816;3.104;2023-05-09T03:53:54;98013.75;;;12.49;100.00
61039;BME280;46919;45.816;3.104;2023-05-09T03:56:20;98003.38;;;12.46;100.00
61039;BME280;46919;45.816;3.104;2023-05-09T03:58:46;97995.88;;;12.48;100.00
61039;BME280;46919;45.816;3.104;2023-05-09T04:01:12;98003.78;;;12.50;100.00
61039;BME280;46919;45.816;3.104;2023-05-09T04:03:38;97994.78;;;12.49;100.00
61039;BME280;46919;45.816;3.104;2023-05-09T04:06:04;97988.31;;;12.50;100.00
61039;BME280;46919;45.816;3.104;2023-05-09T04:08:31;97995.25;;;12.46;100.00
61039;BME280;46919;45.816;3.104;2023-05-09T04:10:56;97989.25;;;12.44;100.00
61039;BME280;46919;45.816;3.104;2023-05-09T04:13:22;97989.03;;;12.46;100.00
61039;BME280;46919;45.816;3.104;2023-05-09T04:15:47;97979.69;;;12.42;100.00
61039;BME280;46919;45.816;3.104;2023-05-09T04:18:13;97991.03;;;12.39;100.00
61039;BME280;46919;45.816;3.104;2023-05-09T04:20:38;97983.72;;;12.39;100.00
61039;BME280;46919;45.816;3.104;2023-05-09T04:23:04;97975.94;;;12.43;100.00
61039;BME280;46919;45.816;3.104;2023-05-09T04:25:30;97977.59;;;12.44;100.00
61039;BME280;46919;45.816;3.104;2023-05-09T04:27:56;97972.63;;;12.41;100.00
61039;BME280;46919;45.816;3.104;2023-05-09T04:30:22;97969.34;;;12.39;100.00
61039;BME280;46919;45.816;3.104;2023-05-09T04:32:47;97965.56;;;12.40;100.00
61039;BME280;46919;45.816;3.104;2023-05-09T04:35:14;97972.63;;;12.41;100.00
61039;BME280;46919;45.816;3.104;2023-05-09T04:37:39;97962.63;;;12.41;100.00
61039;BME280;46919;45.816;3.104;2023-05-09T04:40:06;97969.69;;;12.42;100.00
61039;BME280;46919;45.816;3.104;2023-05-09T04:42:33;97975.13;;;12.42;100.00
61039;BME280;46919;45.816;3.104;2023-05-09T04:44:59;97968.63;;;12.43;100.00
61039;BME280;46919;45.816;3.104;2023-05-09T04:47:25;97967.00;;;12.42;100.00
61039;BME280;46919;45.816;3.104;2023-05-09T04:49:50;97971.09;;;12.45;100.00
61039;BME280;46919;45.816;3.104;2023-05-09T04:52:16;97958.38;;;12.45;100.00
61039;BME280;46919;45.816;3.104;2023-05-09T04:54:41;97963.56;;;12.47;100.00
61039;BME280;46919;45.816;3.104;2023-05-09T04:57:07;97949.66;;;12.43;100.00
61039;BME280;46919;45.816;3.104;2023-05-09T04:59:33;97954.13;;;12.49;100.00
61039;BME280;46919;45.816;3.104;2023-05-09T05:01:58;97956.97;;;12.55;100.00
61039;BME280;46919;45.816;3.104;2023-05-09T05:04:24;97953.19;;;12.56;100.00
61039;BME280;46919;45.816;3.104;2023-05-09T05:06:49;97944.94;;;12.62;100.00
61039;BME280;46919;45.816;3.104;2023-05-09T05:09:15;97940.34;;;12.63;100.00
61039;BME280;46919;45.816;3.104;2023-05-09T05:11:40;97944.13;;;12.74;100.00
61039;BME280;46919;45.816;3.104;2023-05-09T05:14:06;97945.50;;;12.76;100.00
61039;BME280;46919;45.816;3.104;2023-05-09T05:16:31;97946.69;;;12.80;100.00
61039;BME280;46919;45.816;3.104;2023-05-09T05:18:56;97940.19;;;12.81;100.00
61039;BME280;46919;45.816;3.104;2023-05-09T05:21:22;97937.25;;;12.83;100.00
61039;BME280;46919;45.816;3.104;2023-05-09T05:23:47;97935.72;;;12.87;100.00
61039;BME280;46919;45.816;3.104;2023-05-09T05:26:13;97933.94;;;12.93;100.00
61039;BME280;46919;45.816;3.104;2023-05-09T05:28:38;97933.22;;;12.97;100.00
61039;BME280;46919;45.816;3.104;2023-05-09T05:31:04;97933.09;;;13.04;100.00
61039;BME280;46919;45.816;3.104;2023-05-09T05:33:29;97937.44;;;13.17;100.00
61039;BME280;46919;45.816;3.104;2023-05-09T05:35:55;97942.00;;;13.28;100.00
61039;BME280;46919;45.816;3.104;2023-05-09T05:38:20;97929.25;;;13.40;100.00
61039;BME280;46919;45.816;3.104;2023-05-09T05:40:45;97929.88;;;13.59;100.00
61039;BME280;46919;45.816;3.104;2023-05-09T05:43:11;97930.63;;;13.72;100.00
61039;BME280;46919;45.816;3.104;2023-05-09T05:45:36;97910.06;;;13.76;100.00
61039;BME280;46919;45.816;3.104;2023-05-09T05:48:02;97907.34;;;13.76;100.00
61039;BME280;46919;45.816;3.104;2023-05-09T05:50:27;97917.22;;;13.82;100.00
61039;BME280;46919;45.816;3.104;2023-05-09T05:52:53;97919.22;;;13.87;100.00
61039;BME280;46919;45.816;3.104;2023-05-09T05:55:18;97914.59;;;13.87;100.00
61039;BME280;46919;45.816;3.104;2023-05-09T05:57:44;97904.22;;;13.84;100.00
61039;BME280;46919;45.816;3.104;2023-05-09T06:00:10;97909.16;;;13.87;100.00
61039;BME280;46919;45.816;3.104;2023-05-09T06:02:36;97903.22;;;13.90;100.00
61039;BME280;46919;45.816;3.104;2023-05-09T06:05:02;97896.66;;;13.86;100.00
61039;BME280;46919;45.816;3.104;2023-05-09T06:07:28;97899.94;;;13.88;100.00
61039;BME280;46919;45.816;3.104;2023-05-09T06:09:53;97901.34;;;13.91;100.00
61039;BME280;46919;45.816;3.104;2023-05-09T06:12:19;97897.31;;;13.93;100.00
61039;BME280;46919;45.816;3.104;2023-05-09T06:14:44;97891.88;;;13.93;100.00
61039;BME280;46919;45.816;3.104;2023-05-09T06:17:10;97896.31;;;14.00;100.00
61039;BME280;46919;45.816;3.104;2023-05-09T06:19:35;97885.94;;;13.97;100.00
61039;BME280;46919;45.816;3.104;2023-05-09T06:22:01;97877.63;;;14.03;100.00
61039;BME280;46919;45.816;3.104;2023-05-09T06:24:27;97886.03;;;14.02;100.00
61039;BME280;46919;45.816;3.104;2023-05-09T06:26:52;97879.53;;;14.03;100.00
61039;BME280;46919;45.816;3.104;2023-05-09T06:29:18;97880.59;;;14.02;100.00
61039;BME280;46919;45.816;3.104;2023-05-09T06:31:43;97868.72;;;14.08;100.00
61039;BME280;46919;45.816;3.104;2023-05-09T06:34:09;97876.72;;;14.14;100.00
61039;BME280;46919;45.816;3.104;2023-05-09T06:36:34;97870.22;;;14.16;100.00
61039;BME280;46919;45.816;3.104;2023-05-09T06:39:00;97865.34;;;14.18;100.00
61039;BME280;46919;45.816;3.104;2023-05-09T06:41:25;97854.31;;;14.24;100.00
61039;BME280;46919;45.816;3.104;2023-05-09T06:43:51;97857.09;;;14.29;100.00
61039;BME280;46919;45.816;3.104;2023-05-09T06:46:17;97853.81;;;14.27;100.00
61039;BME280;46919;45.816;3.104;2023-05-09T06:48:43;97844.88;;;14.32;100.00
61039;BME280;46919;45.816;3.104;2023-05-09T06:51:08;97840.59;;;14.36;100.00
61039;BME280;46919;45.816;3.104;2023-05-09T06:53:34;97847.69;;;14.37;100.00
61039;BME280;46919;45.816;3.104;2023-05-09T06:55:59;97830.03;;;14.40;100.00
61039;BME280;46919;45.816;3.104;2023-05-09T06:58:25;97835.84;;;14.43;100.00
61039;BME280;46919;45.816;3.104;2023-05-09T07:00:51;97832.84;;;14.45;100.00
61039;BME280;46919;45.816;3.104;2023-05-09T07:03:17;97832.34;;;14.48;100.00
61039;BME280;46919;45.816;3.104;2023-05-09T07:05:42;97826.38;;;14.51;100.00
61039;BME280;46919;45.816;3.104;2023-05-09T07:08:08;97828.84;;;14.53;100.00
61039;BME280;46919;45.816;3.104;2023-05-09T07:10:33;97823.09;;;14.49;100.00
61039;BME280;46919;45.816;3.104;2023-05-09T07:12:59;97821.13;;;14.61;100.00
61039;BME280;46919;45.816;3.104;2023-05-09T07:15:24;97817.41;;;14.67;100.00
61039;BME280;46919;45.816;3.104;2023-05-09T07:17:50;97823.66;;;14.68;100.00
61039;BME280;46919;45.816;3.104;2023-05-09T07:20:16;97817.97;;;14.70;100.00
61039;BME280;46919;45.816;3.104;2023-05-09T07:22:42;97812.91;;;14.78;100.00
61039;BME280;46919;45.816;3.104;2023-05-09T07:25:07;97819.84;;;14.91;100.00
61039;BME280;46919;45.816;3.104;2023-05-09T07:27:34;97810.72;;;15.02;100.00
61039;BME280;46919;45.816;3.104;2023-05-09T07:29:59;97802.31;;;15.04;100.00
61039;BME280;46919;45.816;3.104;2023-05-09T07:32:25;97798.19;;;15.01;100.00
61039;BME280;46919;45.816;3.104;2023-05-09T07:34:53;97797.22;;;15.13;100.00
61039;BME280;46919;45.816;3.104;2023-05-09T07:37:18;97786.44;;;15.23;100.00
61039;BME280;46919;45.816;3.104;2023-05-09T07:39:44;97793.59;;;15.29;100.00
61039;BME280;46919;45.816;3.104;2023-05-09T07:42:11;97785.94;;;15.26;100.00
61039;BME280;46919;45.816;3.104;2023-05-09T07:44:37;97789.13;;;15.18;100.00
61039;BME280;46919;45.816;3.104;2023-05-09T07:47:02;97785.81;;;15.16;100.00
61039;BME280;46919;45.816;3.104;2023-05-09T07:49:30;97789.13;;;15.18;100.00
61039;BME280;46919;45.816;3.104;2023-05-09T07:51:55;97781.56;;;15.25;100.00
61039;BME280;46919;45.816;3.104;2023-05-09T07:54:21;97776.56;;;15.17;100.00
61039;BME280;46919;45.816;3.104;2023-05-09T07:56:46;97775.28;;;15.25;100.00
61039;BME280;46919;45.816;3.104;2023-05-09T07:59:11;97773.38;;;15.25;100.00
61039;BME280;46919;45.816;3.104;2023-05-09T08:01:37;97765.25;;;15.30;100.00
61039;BME280;46919;45.816;3.104;2023-05-09T08:04:03;97762.13;;;15.44;100.00
61039;BME280;46919;45.816;3.104;2023-05-09T08:06:31;97758.63;;;15.48;100.00
61039;BME280;46919;45.816;3.104;2023-05-09T08:08:56;97761.91;;;15.50;100.00
61039;BME280;46919;45.816;3.104;2023-05-09T08:11:22;97759.44;;;15.49;100.00
61039;BME280;46919;45.816;3.104;2023-05-09T08:13:47;97754.78;;;15.49;100.00
61039;BME280;46919;45.816;3.104;2023-05-09T08:16:13;97754.25;;;15.47;100.00
61039;BME280;46919;45.816;3.104;2023-05-09T08:18:38;97754.22;;;15.42;100.00
61039;BME280;46919;45.816;3.104;2023-05-09T08:21:03;97741.88;;;15.34;100.00
61039;BME280;46919;45.816;3.104;2023-05-09T08:23:29;97737.47;;;15.28;100.00
61039;BME280;46919;45.816;3.104;2023-05-09T08:25:55;97735.31;;;15.30;100.00
61039;BME280;46919;45.816;3.104;2023-05-09T08:28:21;97727.63;;;15.22;100.00
61039;BME280;46919;45.816;3.104;2023-05-09T08:30:49;97727.63;;;15.22;100.00
61039;BME280;46919;45.816;3.104;2023-05-09T08:33:15;97722.72;;;15.24;100.00
61039;BME280;46919;45.816;3.104;2023-05-09T08:35:40;97727.91;;;15.26;100.00
61039;BME280;46919;45.816;3.104;2023-05-09T08:38:06;97729.06;;;15.30;100.00
61039;BME280;46919;45.816;3.104;2023-05-09T08:40:34;97727.19;;;15.35;100.00
61039;BME280;46919;45.816;3.104;2023-05-09T08:43:01;97730.25;;;15.44;100.00
61039;BME280;46919;45.816;3.104;2023-05-09T08:45:28;97721.81;;;15.46;100.00
61039;BME280;46919;45.816;3.104;2023-05-09T08:47:54;97710.94;;;15.46;100.00
61039;BME280;46919;45.816;3.104;2023-05-09T08:50:20;97713.69;;;15.51;100.00
61039;BME280;46919;45.816;3.104;2023-05-09T08:52:46;97718.88;;;15.52;100.00
61039;BME280;46919;45.816;3.104;2023-05-09T08:55:13;97710.94;;;15.46;100.00
61039;BME280;46919;45.816;3.104;2023-05-09T08:57:39;97711.47;;;15.48;100.00
61039;BME280;46919;45.816;3.104;2023-05-09T09:00:05;97715.88;;;15.54;100.00
61039;BME280;46919;45.816;3.104;2023-05-09T09:02:34;97708.81;;;15.53;100.00
61039;BME280;46919;45.816;3.104;2023-05-09T09:05:00;97714.25;;;15.53;100.00
61039;BME280;46919;45.816;3.104;2023-05-09T09:07:27;97710.97;;;15.51;100.00
61039;BME280;46919;45.816;3.104;2023-05-09T09:09:54;97711.03;;;15.56;100.00
61039;BME280;46919;45.816;3.104;2023-05-09T09:12:23;97714.84;;;15.60;100.00
61039;BME280;46919;45.816;3.104;2023-05-09T09:14:52;97705.88;;;15.65;100.00
61039;BME280;46919;45.816;3.104;2023-05-09T09:17:20;97708.09;;;15.68;100.00
61039;BME280;46919;45.816;3.104;2023-05-09T09:19:48;97714.88;;;15.65;100.00
61039;BME280;46919;45.816;3.104;2023-05-09T09:22:17;97713.25;;;15.64;100.00
61039;BME280;46919;45.816;3.104;2023-05-09T09:24:43;97718.13;;;15.62;100.00
61039;BME280;46919;45.816;3.104;2023-05-09T09:27:08;97718.97;;;15.63;100.00
61039;BME280;46919;45.816;3.104;2023-05-09T09:29:34;97709.91;;;15.57;100.00
61039;BME280;46919;45.816;3.104;2023-05-09T09:32:04;97715.97;;;15.64;100.00
61039;BME280;46919;45.816;3.104;2023-05-09T09:34:30;97710.59;;;15.74;100.00
61039;BME280;46919;45.816;3.104;2023-05-09T09:36:57;97707.97;;;15.85;100.00
61039;BME280;46919;45.816;3.104;2023-05-09T09:39:22;97706.91;;;15.91;100.00
61039;BME280;46919;45.816;3.104;2023-05-09T09:41:48;97706.06;;;15.90;100.00
61039;BME280;46919;45.816;3.104;2023-05-09T09:44:18;97704.41;;;15.84;100.00
61039;BME280;46919;45.816;3.104;2023-05-09T09:49:15;97700.88;;;15.84;100.00
61039;BME280;46919;45.816;3.104;2023-05-09T09:51:41;97699.78;;;15.80;100.00
61039;BME280;46919;45.816;3.104;2023-05-09T09:54:08;97694.56;;;15.78;100.00
61039;BME280;46919;45.816;3.104;2023-05-09T09:56:41;97689.38;;;15.77;100.00
61039;BME280;46919;45.816;3.104;2023-05-09T09:59:12;97691.84;;;15.78;100.00
61039;BME280;46919;45.816;3.104;2023-05-09T10:01:57;97688.22;;;15.72;100.00
61039;BME280;46919;45.816;3.104;2023-05-09T10:04:24;97687.16;;;15.73;100.00
61039;BME280;46919;45.816;3.104;2023-05-09T10:07:11;97677.06;;;15.74;100.00
61039;BME280;46919;45.816;3.104;2023-05-09T10:09:37;97671.22;;;15.92;100.00
61039;BME280;46919;45.816;3.104;2023-05-09T10:12:05;97670.22;;;16.19;100.00
61039;BME280;46919;45.816;3.104;2023-05-09T10:14:32;97661.84;;;16.31;100.00
61039;BME280;46919;45.816;3.104;2023-05-09T10:16:59;97656.91;;;16.28;100.00
61039;BME280;46919;45.816;3.104;2023-05-09T10:19:26;97664.56;;;16.36;100.00
61039;BME280;46919;45.816;3.104;2023-05-09T10:21:58;97666.47;;;16.36;100.00
61039;BME280;46919;45.816;3.104;2023-05-09T10:24:36;97670.84;;;16.37;100.00
61039;BME280;46919;45.816;3.104;2023-05-09T10:27:08;97668.94;;;16.32;100.00
61039;BME280;46919;45.816;3.104;2023-05-09T10:29:43;97667.81;;;16.23;100.00
61039;BME280;46919;45.816;3.104;2023-05-09T10:32:23;97655.22;;;16.11;100.00
61039;BME280;46919;45.816;3.104;2023-05-09T10:34:52;97657.94;;;16.11;100.00
61039;BME280;46919;45.816;3.104;2023-05-09T10:37:20;97654.13;;;16.18;100.00
61039;BME280;46919;45.816;3.104;2023-05-09T10:39:45;97652.56;;;16.32;100.00
61039;BME280;46919;45.816;3.104;2023-05-09T10:42:12;97647.66;;;16.39;100.00
61039;BME280;46919;45.816;3.104;2023-05-09T10:44:38;97643.28;;;16.33;100.00
61039;BME280;46919;45.816;3.104;2023-05-09T10:47:03;97632.94;;;16.35;100.00
61039;BME280;46919;45.816;3.104;2023-05-09T10:49:30;97636.22;;;16.37;100.00
61039;BME280;46919;45.816;3.104;2023-05-09T10:51:56;97639.47;;;16.34;100.00
61039;BME280;46919;45.816;3.104;2023-05-09T10:54:29;97643.53;;;16.26;100.00
61039;BME280;46919;45.816;3.104;2023-05-09T10:56:57;97641.09;;;16.25;100.00
61039;BME280;46919;45.816;3.104;2023-05-09T10:59:33;97638.88;;;16.22;100.00
61039;BME280;46919;45.816;3.104;2023-05-09T11:02:03;97635.59;;;16.15;100.00
61039;BME280;46919;45.816;3.104;2023-05-09T11:04:29;97634.50;;;16.10;100.00
61039;BME280;46919;45.816;3.104;2023-05-09T11:06:55;97634.22;;;16.07;100.00
61039;BME280;46919;45.816;3.104;2023-05-09T11:09:34;97639.97;;;16.21;100.00
61039;BME280;46919;45.816;3.104;2023-05-09T11:17:02;97626.94;;;16.38;100.00
61039;BME280;46919;45.816;3.104;2023-05-09T11:19:56;97634.03;;;16.39;100.00
61039;BME280;46919;45.816;3.104;2023-05-09T11:22:24;97630.50;;;16.34;100.00
61039;BME280;46919;45.816;3.104;2023-05-09T11:24:58;97625.03;;;16.34;100.00
61039;BME280;46919;45.816;3.104;2023-05-09T11:27:26;97629.91;;;16.26;100.00
61039;BME280;46919;45.816;3.104;2023-05-09T11:29:58;97627.97;;;16.22;100.00
61039;BME280;46919;45.816;3.104;2023-05-09T11:32:30;97624.97;;;16.18;100.00
61039;BME280;46919;45.816;3.104;2023-05-09T11:35:15;97628.75;;;16.07;100.00
61039;BME280;46919;45.816;3.104;2023-05-09T11:37:46;97625.47;;;16.05;100.00
61039;BME280;46919;45.816;3.104;2023-05-09T11:40:14;97623.84;;;16.04;100.00
61039;BME280;46919;45.816;3.104;2023-05-09T11:42:44;97625.72;;;16.03;100.00
61039;BME280;46919;45.816;3.104;2023-05-09T11:45:11;97621.41;;;16.12;100.00
61039;BME280;46919;45.816;3.104;2023-05-09T11:47:38;97619.78;;;16.11;100.00
61039;BME280;46919;45.816;3.104;2023-05-09T11:50:11;97622.25;;;16.13;100.00
61039;BME280;46919;45.816;3.104;2023-05-09T11:52:37;97615.13;;;16.12;100.00
61039;BME280;46919;45.816;3.104;2023-05-09T11:55:11;97627.63;;;16.03;100.00
61039;BME280;46919;45.816;3.104;2023-05-09T11:57:55;97631.69;;;15.95;100.00
61039;BME280;46919;45.816;3.104;2023-05-09T12:00:22;97624.56;;;15.89;100.00
61039;BME280;46919;45.816;3.104;2023-05-09T12:02:48;97623.50;;;15.85;100.00
61039;BME280;46919;45.816;3.104;2023-05-09T12:05:16;97615.59;;;15.88;100.00
61039;BME280;46919;45.816;3.104;2023-05-09T12:07:43;97616.97;;;15.91;100.00
61039;BME280;46919;45.816;3.104;2023-05-09T12:10:14;97616.41;;;15.89;100.00
61039;BME280;46919;45.816;3.104;2023-05-09T12:12:44;97618.03;;;15.80;100.00
61039;BME280;46919;45.816;3.104;2023-05-09T12:15:10;97614.72;;;15.78;100.00
61039;BME280;46919;45.816;3.104;2023-05-09T12:17:37;97622.91;;;15.83;100.00
61039;BME280;46919;45.816;3.104;2023-05-09T12:20:03;97623.50;;;15.85;100.00
61039;BME280;46919;45.816;3.104;2023-05-09T12:22:30;97620.22;;;15.88;100.00
61039;BME280;46919;45.816;3.104;2023-05-09T12:24:58;97622.97;;;15.93;100.00
61039;BME280;46919;45.816;3.104;2023-05-09T12:27:25;97632.75;;;15.89;100.00
61039;BME280;46919;45.816;3.104;2023-05-09T12:29:52;97637.91;;;15.85;100.00
61039;BME280;46919;45.816;3.104;2023-05-09T12:32:17;97636.59;;;15.88;100.00
61039;BME280;46919;45.816;3.104;2023-05-09T12:34:43;97636.06;;;15.91;100.00
61039;BME280;46919;45.816;3.104;2023-05-09T12:37:19;97637.41;;;15.93;100.00
61039;BME280;46919;45.816;3.104;2023-05-09T12:42:34;97634.41;;;15.90;100.00
61039;BME280;46919;45.816;3.104;2023-05-09T12:45:03;97620.22;;;15.88;100.00
61039;BME280;46919;45.816;3.104;2023-05-09T12:47:32;97628.38;;;15.83;100.00
61039;BME280;46919;45.816;3.104;2023-05-09T12:49:58;97628.91;;;15.80;100.00
61039;BME280;46919;45.816;3.104;2023-05-09T12:52:24;97617.13;;;15.69;100.00
61039;BME280;46919;45.816;3.104;2023-05-09T12:54:51;97617.13;;;15.69;100.00
61039;BME280;46919;45.816;3.104;2023-05-09T12:57:24;97623.38;;;15.69;100.00
61039;BME280;46919;45.816;3.104;2023-05-09T12:59:57;97617.94;;;15.69;100.00
61039;BME280;46919;45.816;3.104;2023-05-09T13:02:27;97631.53;;;15.64;100.00
61039;BME280;46919;45.816;3.104;2023-05-09T13:05:06;97617.88;;;15.59;100.00
61039;BME280;46919;45.816;3.104;2023-05-09T13:07:46;97618.69;;;15.60;100.00
61039;BME280;46919;45.816;3.104;2023-05-09T13:10:31;97615.69;;;15.56;100.00
61039;BME280;46919;45.816;3.104;2023-05-09T13:12:57;97617.56;;;15.55;100.00